Licenciado Benito Juarez International Airport
MMMX : now visible

Aeroporto :











RITROVATECI SU...

 
LOGIN :

Iscrizione | Disclaimer

   EN    FR    IT 

 









Sommario :    VFR   VFR Marginale   IFR   IFR Intensivo   IFR Molto Intensivo
Visibilità : 
Base nubi : 
>= 8 km
>= 3000ft
5 / 8 km
1000 / 3000 ft
1500m / 5 km
500 / 1000 ft
800 / 1500m
200 / 500 ft
< 800m
< 200 ft
Simboli :   Temporali  Nebbia  Neve Forte  Precipitazioni Forti  Vento > 20 kt






- Altitudine del aeroporto : 7316 ft
- Codice IATA : MEX


MMMX - Licenciado Benito Juarez International

ULTIMO METAR :
  • 280545Z 02003KT 10SM SCT025 BKN100 17/02 A3041 NOSIG RMK SLP142 52007 910 8/430 HZY

METARs OBSOLETI :
  • 280445Z 05006KT 10SM BKN025 BKN100 17/02 A3041 NOSIG RMK 8/430 HZY
  • 280345Z 05007KT 10SM BKN025 17/03 A3039 NOSIG RMK 8/400 HZY AC

TAF TAF MMMX
Valido dal 28 a 06 ore il 29 a 12 ore UTC


280423Z 2806/2912 05006KT P6SM BKN025 TX25/2821Z TN09/2812Z
FM281800 04014KT P6SM BKN025 BKN100
FM290600 34005KT P6SM SCT020



MetMap, La meteo Aeronautica in un colpo d'occhio ! - Copyright ORBIFLY Dicembre 2007 - Disclaimer

ORBIFLY MET'MAP TEAM :

Programmazione e sviluppo : Alexandra Zaïnal
Concezione : Baudouin d'Aumeries
Aiuto per la programmazione : Marc-Olivier Méhu
Supporto tecnico e logistico : Manuel Goepfert
Aiuto per la traduzione : Arnaldo La Scala

Contatto : metmap@orbifly.com




FONTI E CREDITI :

   NOAA       Earth
Advisory